createdAt,value
2023-03-11T00:03:10.312Z,85.64
2023-03-11T00:18:13.505Z,85.72
2023-03-11T00:33:17.166Z,85.40
2023-03-11T00:48:20.334Z,85.94
2023-03-11T01:03:23.595Z,84.78
2023-03-11T01:18:27.289Z,85.55
2023-03-11T01:33:30.454Z,84.53
2023-03-11T01:48:33.785Z,84.25
2023-03-11T02:03:41.157Z,84.52
2023-03-11T02:18:44.669Z,84.63
2023-03-11T02:33:51.099Z,84.77
2023-03-11T02:48:56.512Z,84.28
2023-03-11T03:03:59.779Z,83.91
2023-03-11T03:19:04.682Z,83.68
2023-03-11T03:34:08.886Z,84.31
2023-03-11T03:49:13.324Z,84.72
2023-03-11T04:04:17.515Z,83.90
2023-03-11T04:19:21.933Z,83.68
2023-03-11T04:34:25.216Z,83.33
2023-03-11T04:49:31.526Z,83.58
2023-03-11T05:04:35.384Z,83.72
2023-03-11T05:19:39.106Z,83.27
2023-03-11T05:34:50.018Z,83.25
2023-03-11T05:49:53.441Z,83.40
2023-03-11T06:04:56.930Z,83.23
2023-03-11T06:20:00.828Z,83.08
2023-03-11T06:35:06.179Z,82.75
2023-03-11T06:50:10.941Z,82.96
2023-03-11T07:05:14.540Z,82.44
2023-03-11T07:20:18.945Z,82.28
2023-03-11T07:35:22.349Z,82.02
2023-03-11T07:50:25.968Z,81.94
2023-03-11T08:05:34.387Z,81.49
2023-03-11T08:20:39.149Z,81.27
2023-03-11T08:35:42.587Z,80.57
2023-03-11T08:50:53.728Z,80.70
2023-03-11T09:05:59.268Z,80.81
2023-03-11T09:21:02.784Z,80.52
2023-03-11T09:36:07.229Z,79.95
2023-03-11T09:51:17.505Z,79.81
2023-03-11T10:06:30.237Z,79.28
2023-03-11T10:22:25.705Z,79.11
2023-03-11T10:37:49.783Z,78.55
2023-03-11T10:53:10.210Z,77.92
2023-03-11T11:08:17.414Z,77.48
2023-03-11T11:23:32.240Z,77.39
2023-03-11T11:38:35.840Z,77.02
2023-03-11T11:53:56.009Z,77.22
2023-03-11T12:09:24.471Z,77.16
2023-03-11T12:24:56.273Z,76.99
2023-03-11T12:40:02.276Z,75.72
2023-03-11T12:55:15.502Z,74.71
2023-03-11T13:10:38.873Z,74.04
2023-03-11T13:26:07.851Z,73.53
2023-03-11T13:41:28.252Z,72.68
2023-03-11T13:56:34.407Z,71.91
2023-03-11T14:11:40.248Z,70.27
2023-03-11T14:26:44.652Z,69.51
2023-03-11T14:41:48.395Z,68.91
2023-03-11T14:57:06.992Z,68.56
2023-03-11T15:12:31.645Z,69.00
2023-03-11T15:27:38.782Z,69.59
2023-03-11T15:42:52.780Z,70.64
2023-03-11T15:58:06.892Z,70.69
2023-03-11T16:13:15.655Z,69.32
2023-03-11T16:28:19.229Z,67.82
2023-03-11T16:43:23.550Z,66.65
2023-03-11T16:58:26.976Z,66.17
2023-03-11T17:13:30.343Z,66.22
2023-03-11T17:28:35.035Z,66.09
2023-03-11T17:43:38.754Z,65.25
2023-03-11T17:58:42.227Z,64.21
2023-03-11T18:13:46.286Z,64.27
2023-03-11T18:28:52.993Z,65.55
2023-03-11T18:44:00.035Z,66.37
2023-03-11T18:59:03.415Z,67.13
2023-03-11T19:14:09.222Z,68.30
2023-03-11T19:29:14.495Z,69.84
2023-03-11T19:44:18.028Z,70.16
2023-03-11T19:59:22.046Z,71.21
2023-03-11T20:14:25.942Z,72.43
2023-03-11T20:29:29.280Z,72.60
2023-03-11T20:44:32.541Z,72.78
2023-03-11T20:59:35.891Z,72.69
2023-03-11T21:14:39.252Z,74.59
2023-03-11T21:29:44.049Z,75.20
2023-03-11T21:44:47.407Z,75.46
2023-03-11T21:59:50.621Z,75.35
2023-03-11T22:14:53.952Z,75.98
2023-03-11T22:29:57.202Z,75.53
2023-03-11T22:45:00.480Z,75.64
2023-03-11T23:00:09.122Z,75.00
2023-03-11T23:15:16.208Z,74.05
2023-03-11T23:30:19.437Z,74.26
2023-03-11T23:45:23.007Z,73.45
